createdAt,value
2018-09-22T00:00:47.357Z,13.50
2018-09-22T00:03:15.956Z,12.80
2018-09-22T00:05:44.513Z,13.47
2018-09-22T00:08:12.985Z,14.57
2018-09-22T00:10:41.500Z,13.73
2018-09-22T00:13:10.169Z,15.30
2018-09-22T00:15:38.784Z,15.60
2018-09-22T00:18:07.328Z,15.57
2018-09-22T00:20:35.841Z,15.30
2018-09-22T00:23:05.347Z,12.70
2018-09-22T00:25:33.893Z,13.80
2018-09-22T00:28:02.405Z,14.03
2018-09-22T00:30:31.150Z,5.90
2018-09-22T00:32:59.821Z,4.10
2018-09-22T00:35:28.344Z,3.87
2018-09-22T00:37:56.845Z,2.73
2018-09-22T00:40:25.413Z,3.53
2018-09-22T00:42:53.947Z,2.50
2018-09-22T00:45:22.483Z,2.80
2018-09-22T00:47:51.081Z,2.93
2018-09-22T00:50:20.535Z,2.77
2018-09-22T00:52:49.081Z,2.60
2018-09-22T00:55:17.573Z,1.97
2018-09-22T00:57:46.136Z,2.23
2018-09-22T01:00:14.582Z,2.20
2018-09-22T01:02:43.097Z,1.80
2018-09-22T01:05:11.597Z,1.50
2018-09-22T01:07:40.145Z,1.20
2018-09-22T01:10:08.697Z,1.33
2018-09-22T01:12:37.216Z,1.30
2018-09-22T01:15:06.745Z,1.40
2018-09-22T01:17:35.273Z,1.53
2018-09-22T01:20:03.855Z,1.80
2018-09-22T01:22:32.350Z,2.40
2018-09-22T01:25:00.802Z,1.73
2018-09-22T01:27:29.314Z,1.80
2018-09-22T01:29:57.762Z,2.07
2018-09-22T01:32:26.285Z,1.33
2018-09-22T01:34:55.730Z,1.50
2018-09-22T01:37:24.285Z,2.17
2018-09-22T01:39:52.854Z,1.77
2018-09-22T01:42:21.484Z,1.90
2018-09-22T01:44:49.977Z,1.50
2018-09-22T01:47:18.707Z,1.77
2018-09-22T01:49:47.137Z,1.57
2018-09-22T01:52:15.631Z,1.90
2018-09-22T01:54:44.140Z,1.67
2018-09-22T01:57:13.650Z,1.70
2018-09-22T01:59:42.127Z,1.60
2018-09-22T02:02:10.641Z,1.30
2018-09-22T02:04:39.171Z,1.43
2018-09-22T02:07:07.654Z,1.20
2018-09-22T02:09:36.131Z,1.30
2018-09-22T02:12:04.710Z,1.23
2018-09-22T02:14:33.201Z,1.37
2018-09-22T02:17:01.714Z,1.77
2018-09-22T02:19:30.258Z,1.20
2018-09-22T02:21:58.729Z,1.10
2018-09-22T02:24:27.254Z,1.57
2018-09-22T02:26:55.715Z,1.37
2018-09-22T02:29:24.323Z,1.20
2018-09-22T02:31:52.869Z,1.30
2018-09-22T02:34:21.430Z,1.20
2018-09-22T02:36:50.073Z,1.40
2018-09-22T02:39:18.561Z,1.40
2018-09-22T02:41:47.130Z,1.70
2018-09-22T02:44:15.575Z,1.70
2018-09-22T02:46:44.121Z,1.60
2018-09-22T02:49:12.645Z,1.60
2018-09-22T02:51:41.163Z,1.50
2018-09-22T02:54:09.761Z,1.50
2018-09-22T02:56:38.342Z,1.83
2018-09-22T02:59:08.049Z,2.13
2018-09-22T03:01:36.581Z,1.60
2018-09-22T03:04:05.106Z,1.83
2018-09-22T03:06:33.589Z,2.20
2018-09-22T03:09:03.218Z,1.60
2018-09-22T03:11:31.790Z,2.20
2018-09-22T03:14:00.314Z,1.87
2018-09-22T03:16:28.847Z,1.40
2018-09-22T03:18:57.277Z,2.00
2018-09-22T03:21:25.777Z,2.37
2018-09-22T03:23:54.293Z,2.50
2018-09-22T03:26:22.836Z,2.93
2018-09-22T03:28:51.378Z,3.30
2018-09-22T03:31:20.851Z,3.30
2018-09-22T03:33:49.402Z,3.20
2018-09-22T03:36:17.918Z,3.90
2018-09-22T03:38:46.365Z,3.80
2018-09-22T03:41:14.874Z,4.37
2018-09-22T03:43:43.333Z,4.13
2018-09-22T03:46:11.853Z,3.70
2018-09-22T03:48:40.396Z,3.80
2018-09-22T03:51:08.918Z,4.77
2018-09-22T03:53:37.354Z,3.80
2018-09-22T03:56:05.892Z,3.53
2018-09-22T03:58:34.413Z,3.27
2018-09-22T04:01:02.945Z,4.73
2018-09-22T04:03:32.405Z,2.93
2018-09-22T04:06:00.910Z,3.30
2018-09-22T04:08:29.409Z,3.03
2018-09-22T04:10:57.854Z,2.53
2018-09-22T04:13:26.369Z,2.40
2018-09-22T04:15:54.801Z,2.80
2018-09-22T04:18:23.339Z,2.63
2018-09-22T04:20:51.771Z,3.20
2018-09-22T04:23:20.249Z,2.87
2018-09-22T04:25:48.885Z,3.07
2018-09-22T04:28:17.310Z,3.10
2018-09-22T04:30:45.838Z,3.60
2018-09-22T04:33:14.334Z,4.10
2018-09-22T04:35:42.812Z,3.80
2018-09-22T04:38:11.343Z,3.50
2018-09-22T04:40:39.821Z,2.40
2018-09-22T04:43:08.353Z,2.63
2018-09-22T04:45:36.785Z,2.80
2018-09-22T04:48:05.528Z,2.13
2018-09-22T04:50:34.028Z,2.23
2018-09-22T04:53:02.529Z,2.30
2018-09-22T04:55:31.026Z,2.37
2018-09-22T04:57:59.574Z,2.30
2018-09-22T05:00:28.130Z,2.37
2018-09-22T05:02:56.561Z,3.13
2018-09-22T05:05:25.115Z,2.57
2018-09-22T05:07:53.690Z,2.60
2018-09-22T05:10:22.247Z,2.67
2018-09-22T05:12:50.806Z,2.70
2018-09-22T05:15:19.353Z,2.73
2018-09-22T05:17:47.877Z,26.00
2018-09-22T05:20:16.354Z,15.67
2018-09-22T05:22:44.874Z,2.70
2018-09-22T05:25:13.370Z,2.57
2018-09-22T05:27:41.933Z,2.70
2018-09-22T05:30:11.430Z,2.70
2018-09-22T05:32:39.933Z,2.40
2018-09-22T05:35:09.405Z,2.53
2018-09-22T05:37:37.914Z,3.40
2018-09-22T05:40:06.934Z,2.53
2018-09-22T05:42:35.461Z,2.80
2018-09-22T05:45:04.017Z,2.30
2018-09-22T05:47:33.529Z,2.33
2018-09-22T05:50:02.046Z,2.70
2018-09-22T05:52:30.671Z,2.60
2018-09-22T05:54:59.202Z,3.00
2018-09-22T05:57:27.677Z,2.63
2018-09-22T05:59:56.186Z,2.90
2018-09-22T06:02:24.644Z,2.50
2018-09-22T06:04:53.155Z,2.50
2018-09-22T06:07:21.617Z,3.10
2018-09-22T06:09:50.109Z,3.00
2018-09-22T06:12:18.621Z,2.70
2018-09-22T06:14:48.086Z,3.17
2018-09-22T06:17:16.553Z,2.80
2018-09-22T06:19:45.066Z,3.50
2018-09-22T06:22:13.727Z,2.80
2018-09-22T06:24:42.225Z,3.30
2018-09-22T06:27:10.760Z,3.30
2018-09-22T06:29:39.328Z,6.97
2018-09-22T06:32:07.842Z,4.13
2018-09-22T06:34:36.364Z,4.00
2018-09-22T06:37:04.851Z,5.03
2018-09-22T06:39:33.442Z,3.17
2018-09-22T06:42:01.973Z,4.40
2018-09-22T06:44:30.498Z,3.30
2018-09-22T06:46:58.950Z,3.10
2018-09-22T06:49:27.472Z,3.23
2018-09-22T06:51:56.047Z,3.20
2018-09-22T06:54:24.530Z,3.27
2018-09-22T06:56:53.109Z,3.17
2018-09-22T06:59:21.561Z,3.30
2018-09-22T07:01:50.151Z,3.60
2018-09-22T07:04:18.671Z,3.77
2018-09-22T07:06:47.205Z,3.77
2018-09-22T07:09:15.669Z,3.97
2018-09-22T07:11:45.221Z,4.07
2018-09-22T07:14:13.661Z,4.10
2018-09-22T07:16:42.459Z,4.10
2018-09-22T07:19:11.077Z,5.53
2018-09-22T07:22:43.503Z,4.80
2018-09-22T07:25:12.040Z,3.93
2018-09-22T07:27:40.477Z,4.37
2018-09-22T07:30:09.117Z,3.90
2018-09-22T07:32:37.658Z,4.30
2018-09-22T07:35:06.229Z,3.83
2018-09-22T07:37:34.784Z,4.10
2018-09-22T07:40:03.353Z,3.50
2018-09-22T07:42:31.941Z,5.13
2018-09-22T07:45:00.489Z,5.03
2018-09-22T07:47:29.021Z,5.47
2018-09-22T07:49:57.669Z,4.10
2018-09-22T07:53:29.988Z,5.00
2018-09-22T07:55:59.970Z,4.70
2018-09-22T07:58:28.474Z,14.80
2018-09-22T08:00:57.919Z,7.10
2018-09-22T08:03:26.396Z,7.20
2018-09-22T08:05:54.821Z,5.53
2018-09-22T08:08:23.335Z,5.03
2018-09-22T08:10:51.829Z,5.13
2018-09-22T08:13:20.317Z,5.00
2018-09-22T08:15:48.765Z,4.80
2018-09-22T08:18:17.234Z,5.07
2018-09-22T08:20:45.681Z,6.70
2018-09-22T08:23:14.186Z,5.97
2018-09-22T08:25:42.650Z,5.90
2018-09-22T08:28:11.158Z,5.43
2018-09-22T08:30:39.605Z,5.57
2018-09-22T08:33:08.074Z,5.80
2018-09-22T08:35:36.614Z,5.20
2018-09-22T08:38:05.074Z,4.07
2018-09-22T08:40:33.553Z,4.40
2018-09-22T08:43:01.983Z,4.13
2018-09-22T08:45:30.413Z,4.23
2018-09-22T08:47:58.860Z,4.37
2018-09-22T08:50:27.329Z,4.47
2018-09-22T08:52:55.753Z,5.17
2018-09-22T08:55:24.229Z,4.67
2018-09-22T08:57:52.709Z,10.90
2018-09-22T09:00:21.213Z,5.10
2018-09-22T09:02:49.690Z,4.17
2018-09-22T09:05:18.205Z,3.97
2018-09-22T09:07:46.636Z,4.17
2018-09-22T09:10:15.114Z,5.30
2018-09-22T09:12:43.586Z,3.20
2018-09-22T09:15:12.018Z,3.30
2018-09-22T09:17:40.582Z,2.93
2018-09-22T09:20:09.040Z,3.17
2018-09-22T09:22:37.505Z,2.10
2018-09-22T09:25:06.046Z,2.37
2018-09-22T09:27:34.610Z,2.27
2018-09-22T09:30:03.054Z,1.90
2018-09-22T09:32:31.480Z,1.97
2018-09-22T09:34:59.946Z,2.00
2018-09-22T09:37:28.418Z,1.80
2018-09-22T09:39:56.905Z,2.00
2018-09-22T09:42:25.437Z,1.50
2018-09-22T09:44:53.949Z,1.90
2018-09-22T09:47:22.641Z,1.90
2018-09-22T09:49:51.113Z,4.70
2018-09-22T09:52:19.613Z,2.10
2018-09-22T09:54:48.105Z,2.20
2018-09-22T09:57:16.589Z,1.67
2018-09-22T09:59:46.066Z,2.20
2018-09-22T10:02:14.559Z,2.03
2018-09-22T10:04:44.065Z,1.60
2018-09-22T10:07:12.570Z,2.00
2018-09-22T10:09:41.133Z,2.10
2018-09-22T10:12:09.566Z,2.80
2018-09-22T10:14:38.217Z,1.90
2018-09-22T10:17:07.698Z,2.17
2018-09-22T10:19:36.182Z,1.70
2018-09-22T10:22:04.682Z,2.10
2018-09-22T10:24:33.334Z,2.23
2018-09-22T10:27:01.802Z,2.00
2018-09-22T10:29:30.285Z,2.50
2018-09-22T10:31:58.805Z,2.50
2018-09-22T10:34:27.361Z,2.33
2018-09-22T10:36:55.829Z,1.93
2018-09-22T10:39:24.357Z,2.40
2018-09-22T10:41:52.930Z,2.30
2018-09-22T10:44:21.365Z,2.20
2018-09-22T10:46:49.898Z,1.90
2018-09-22T10:49:18.433Z,2.10
2018-09-22T10:51:46.949Z,2.10
2018-09-22T10:54:15.429Z,2.10
2018-09-22T10:56:43.885Z,1.80
2018-09-22T10:59:12.467Z,4.30
2018-09-22T11:01:41.145Z,2.47
2018-09-22T11:04:10.719Z,1.73
2018-09-22T11:06:39.233Z,2.03
2018-09-22T11:09:08.791Z,1.53
2018-09-22T11:11:37.274Z,2.47
2018-09-22T11:14:05.869Z,1.57
2018-09-22T11:16:34.434Z,1.80
2018-09-22T11:19:02.922Z,2.00
2018-09-22T11:21:31.505Z,2.30
2018-09-22T11:24:00.058Z,1.57
2018-09-22T11:26:28.583Z,1.60
2018-09-22T11:28:58.159Z,2.20
2018-09-22T11:31:26.670Z,1.67
2018-09-22T11:33:55.191Z,2.20
2018-09-22T11:36:24.085Z,1.87
2018-09-22T11:38:52.597Z,1.50
2018-09-22T11:41:21.062Z,1.70
2018-09-22T11:43:49.597Z,1.93
2018-09-22T11:46:18.216Z,2.30
2018-09-22T11:48:46.840Z,1.57
2018-09-22T11:51:15.297Z,1.90
2018-09-22T11:53:44.829Z,2.20
2018-09-22T11:56:13.268Z,2.00
2018-09-22T11:58:41.816Z,2.20
2018-09-22T12:01:10.396Z,2.00
2018-09-22T12:03:38.982Z,1.50
2018-09-22T12:06:07.678Z,1.93
2018-09-22T12:08:36.197Z,2.43
2018-09-22T12:11:04.709Z,1.90
2018-09-22T12:13:33.257Z,2.27
2018-09-22T12:16:01.746Z,2.40
2018-09-22T12:18:30.256Z,2.00
2018-09-22T12:20:58.759Z,1.53
2018-09-22T12:23:27.585Z,1.77
2018-09-22T12:25:56.116Z,1.90
2018-09-22T12:28:24.563Z,1.70
2018-09-22T12:30:53.100Z,1.60
2018-09-22T12:33:21.542Z,2.30
2018-09-22T12:35:50.057Z,1.37
2018-09-22T12:38:18.589Z,2.00
2018-09-22T12:40:47.098Z,1.77
2018-09-22T12:43:15.541Z,1.67
2018-09-22T12:45:44.049Z,1.43
2018-09-22T12:48:12.540Z,1.80
2018-09-22T12:50:41.105Z,1.63
2018-09-22T12:53:09.607Z,1.80
2018-09-22T12:55:38.041Z,1.80
2018-09-22T12:58:06.769Z,1.70
2018-09-22T13:00:35.530Z,1.60
2018-09-22T13:03:04.071Z,1.00
2018-09-22T13:05:32.528Z,2.17
2018-09-22T13:08:01.022Z,2.33
2018-09-22T13:10:29.565Z,1.50
2018-09-22T13:12:58.129Z,1.37
2018-09-22T13:15:26.666Z,1.47
2018-09-22T13:17:55.141Z,1.63
2018-09-22T13:20:23.658Z,1.83
2018-09-22T13:22:52.380Z,1.90
2018-09-22T13:25:20.852Z,1.77
2018-09-22T13:27:49.393Z,2.00
2018-09-22T13:30:17.949Z,1.60
2018-09-22T13:32:46.442Z,1.80
2018-09-22T13:35:14.981Z,1.33
2018-09-22T13:37:43.494Z,1.40
2018-09-22T13:40:11.965Z,1.37
2018-09-22T13:42:42.019Z,1.63
2018-09-22T13:45:10.576Z,1.90
2018-09-22T13:47:40.197Z,1.80
2018-09-22T13:50:09.669Z,1.80
2018-09-22T13:52:38.190Z,2.13
2018-09-22T13:55:07.018Z,1.90
2018-09-22T13:57:36.537Z,1.27
2018-09-22T14:00:05.533Z,2.10
2018-09-22T14:02:34.040Z,1.70
2018-09-22T14:05:02.537Z,1.70
2018-09-22T14:07:31.018Z,1.90
2018-09-22T14:09:59.612Z,1.60
2018-09-22T14:12:28.047Z,1.93
2018-09-22T14:14:56.565Z,1.47
2018-09-22T14:17:25.018Z,1.90
2018-09-22T14:19:53.514Z,1.40
2018-09-22T14:22:23.289Z,1.40
2018-09-22T14:24:51.845Z,1.63
2018-09-22T14:27:20.395Z,1.53
2018-09-22T14:29:49.904Z,1.90
2018-09-22T14:32:18.345Z,2.20
2018-09-22T14:34:47.877Z,2.23
2018-09-22T14:37:16.373Z,2.00
2018-09-22T14:39:44.956Z,1.80
2018-09-22T14:42:13.405Z,1.73
2018-09-22T14:44:41.926Z,1.57
2018-09-22T14:47:10.413Z,1.87
2018-09-22T14:49:38.941Z,1.80
2018-09-22T14:52:07.529Z,2.20
2018-09-22T14:54:36.110Z,3.17
2018-09-22T14:57:04.613Z,1.90
2018-09-22T14:59:33.110Z,2.60
2018-09-22T15:02:01.558Z,1.43
2018-09-22T15:04:30.073Z,1.87
2018-09-22T15:06:58.537Z,1.43
2018-09-22T15:09:27.045Z,1.90
2018-09-22T15:11:55.492Z,2.00
2018-09-22T15:14:24.037Z,2.03
2018-09-22T15:16:52.560Z,1.87
2018-09-22T15:19:21.117Z,2.60
2018-09-22T15:21:49.657Z,2.52
2018-09-22T15:24:18.094Z,2.30
2018-09-22T15:26:46.681Z,1.50
2018-09-22T15:29:15.205Z,1.90
2018-09-22T15:31:43.681Z,1.73
2018-09-22T15:34:12.277Z,1.77
2018-09-22T15:36:40.981Z,1.73
2018-09-22T15:39:09.874Z,1.53
2018-09-22T15:41:39.371Z,1.70
2018-09-22T15:44:07.885Z,1.30
2018-09-22T15:46:36.372Z,1.53
2018-09-22T15:49:04.897Z,1.80
2018-09-22T15:51:33.341Z,1.80
2018-09-22T15:54:01.894Z,2.10
2018-09-22T15:56:30.406Z,2.27
2018-09-22T15:58:58.913Z,1.40
2018-09-22T16:01:27.409Z,1.80
2018-09-22T16:03:55.945Z,1.80
2018-09-22T16:06:24.465Z,1.50
2018-09-22T16:08:53.009Z,1.50
2018-09-22T16:11:21.542Z,1.30
2018-09-22T16:13:49.969Z,1.70
2018-09-22T16:16:18.580Z,1.83
2018-09-22T16:18:47.353Z,1.80
2018-09-22T16:21:15.838Z,1.50
2018-09-22T16:23:44.351Z,1.40
2018-09-22T16:26:12.865Z,1.60
2018-09-22T16:28:41.374Z,1.70
2018-09-22T16:31:09.928Z,1.93
2018-09-22T16:33:38.498Z,2.10
2018-09-22T16:36:07.058Z,1.60
2018-09-22T16:38:35.505Z,1.70
2018-09-22T16:41:04.041Z,1.70
2018-09-22T16:43:32.613Z,1.80
2018-09-22T16:46:01.085Z,2.13
2018-09-22T16:48:29.653Z,2.00
2018-09-22T16:50:58.182Z,1.80
2018-09-22T16:53:26.762Z,1.87
2018-09-22T16:55:55.310Z,2.30
2018-09-22T16:58:23.844Z,2.83
2018-09-22T17:00:52.390Z,5.50
2018-09-22T17:03:20.854Z,3.47
2018-09-22T17:05:49.362Z,5.93
2018-09-22T17:08:17.927Z,4.10
2018-09-22T17:10:46.415Z,3.10
2018-09-22T17:13:14.864Z,3.20
2018-09-22T17:15:43.386Z,2.83
2018-09-22T17:18:11.921Z,2.83
2018-09-22T17:20:40.417Z,2.30
2018-09-22T17:23:08.925Z,1.80
2018-09-22T17:25:37.366Z,2.27
2018-09-22T17:28:06.390Z,2.13
2018-09-22T17:30:34.866Z,2.47
2018-09-22T17:33:03.395Z,3.43
2018-09-22T17:35:32.929Z,2.50
2018-09-22T17:38:01.405Z,2.33
2018-09-22T17:40:29.982Z,3.53
2018-09-22T17:42:58.516Z,3.17
2018-09-22T17:45:27.023Z,3.10
2018-09-22T17:47:55.591Z,3.93
2018-09-22T17:50:25.089Z,2.87
2018-09-22T17:52:53.692Z,3.00
2018-09-22T17:55:22.225Z,2.73
2018-09-22T17:57:50.705Z,2.90
2018-09-22T18:00:19.430Z,2.80
2018-09-22T18:02:48.073Z,6.03
2018-09-22T18:05:16.617Z,9.00
2018-09-22T18:07:45.133Z,7.93
2018-09-22T18:10:13.629Z,5.27
2018-09-22T18:12:42.097Z,3.50
2018-09-22T18:15:10.742Z,5.53
2018-09-22T18:17:39.269Z,2.67
2018-09-22T18:20:07.864Z,2.57
2018-09-22T18:22:36.345Z,4.37
2018-09-22T18:25:05.216Z,4.90
2018-09-22T18:27:33.805Z,2.67
2018-09-22T18:30:02.297Z,3.30
2018-09-22T18:32:30.749Z,3.30
2018-09-22T18:34:59.286Z,2.43
2018-09-22T18:37:28.761Z,9.97
2018-09-22T18:39:57.385Z,4.33
2018-09-22T18:42:25.922Z,4.20
2018-09-22T18:44:54.442Z,5.03
2018-09-22T18:47:22.999Z,6.77
2018-09-22T18:49:51.498Z,4.23
2018-09-22T18:52:19.949Z,3.77
2018-09-22T18:54:48.457Z,2.57
2018-09-22T18:57:17.021Z,2.97
2018-09-22T18:59:45.541Z,3.30
2018-09-22T19:02:14.433Z,1.83
2018-09-22T19:04:43.009Z,3.10
2018-09-22T19:07:11.450Z,2.40
2018-09-22T19:09:39.973Z,2.70
2018-09-22T19:12:08.413Z,2.67
2018-09-22T19:14:42.393Z,2.90
2018-09-22T19:17:21.678Z,3.93
2018-09-22T19:19:58.122Z,5.37
2018-09-22T19:22:30.654Z,5.37
2018-09-22T19:25:02.293Z,4.00
2018-09-22T19:27:37.556Z,2.87
2018-09-22T19:30:16.530Z,3.17
2018-09-22T19:32:49.369Z,2.90
2018-09-22T19:35:24.741Z,2.77
2018-09-22T19:37:55.844Z,3.90
2018-09-22T19:40:33.802Z,2.93
2018-09-22T19:43:08.924Z,3.13
2018-09-22T19:45:41.993Z,2.10
2018-09-22T19:48:15.121Z,2.53
2018-09-22T19:50:47.181Z,2.40
2018-09-22T19:53:15.803Z,11.40
2018-09-22T19:55:44.250Z,9.20
2018-09-22T19:58:12.742Z,5.03
2018-09-22T20:00:41.246Z,4.10
2018-09-22T20:03:09.726Z,4.07
2018-09-22T20:05:38.169Z,3.50
2018-09-22T20:08:06.665Z,2.90
2018-09-22T20:10:35.182Z,3.37
2018-09-22T20:13:03.757Z,3.30
2018-09-22T20:15:32.225Z,3.30
2018-09-22T20:18:00.669Z,3.47
2018-09-22T20:20:29.256Z,4.17
2018-09-22T20:22:57.743Z,4.57
2018-09-22T20:25:26.266Z,4.10
2018-09-22T20:27:54.714Z,3.73
2018-09-22T20:30:23.309Z,9.40
2018-09-22T20:32:51.778Z,10.37
2018-09-22T20:35:20.314Z,6.20
2018-09-22T20:37:48.883Z,4.70
2018-09-22T20:40:17.418Z,4.67
2018-09-22T20:42:45.937Z,4.43
2018-09-22T20:45:14.423Z,5.10
2018-09-22T20:47:42.946Z,4.07
2018-09-22T20:50:11.532Z,3.70
2018-09-22T20:52:40.033Z,3.00
2018-09-22T20:55:08.578Z,2.70
2018-09-22T20:57:37.274Z,2.57
2018-09-22T21:00:07.073Z,2.67
2018-09-22T21:02:35.713Z,2.60
2018-09-22T21:05:04.428Z,3.40
2018-09-22T21:07:33.943Z,2.90
2018-09-22T21:10:02.546Z,3.00
2018-09-22T21:12:31.054Z,2.60
2018-09-22T21:15:00.709Z,2.80
2018-09-22T21:17:30.172Z,2.93
2018-09-22T21:19:58.717Z,2.97
2018-09-22T21:22:27.341Z,2.60
2018-09-22T21:24:55.858Z,3.13
2018-09-22T21:27:25.165Z,2.93
2018-09-22T21:29:53.761Z,2.40
2018-09-22T21:32:22.342Z,2.60
2018-09-22T21:34:51.114Z,2.97
2018-09-22T21:37:20.025Z,2.70
2018-09-22T21:39:48.550Z,2.90
2018-09-22T21:42:17.136Z,2.90
2018-09-22T21:44:45.606Z,3.40
2018-09-22T21:47:14.170Z,3.00
2018-09-22T21:49:42.702Z,3.00
2018-09-22T21:52:11.321Z,2.73
2018-09-22T21:54:39.893Z,2.40
2018-09-22T21:57:08.374Z,3.07
2018-09-22T21:59:36.883Z,3.20
2018-09-22T22:02:05.421Z,2.67
2018-09-22T22:04:34.953Z,2.97
2018-09-22T22:07:03.529Z,3.20
2018-09-22T22:09:31.975Z,2.70
2018-09-22T22:12:00.477Z,5.07
2018-09-22T22:14:29.104Z,3.37
2018-09-22T22:16:58.573Z,3.10
2018-09-22T22:19:27.211Z,3.10
2018-09-22T22:21:55.737Z,3.03
2018-09-22T22:24:24.251Z,2.80
2018-09-22T22:26:52.815Z,2.60
2018-09-22T22:29:21.305Z,2.40
2018-09-22T22:31:49.837Z,2.30
2018-09-22T22:34:18.343Z,2.33
2018-09-22T22:36:46.838Z,2.63
2018-09-22T22:39:15.339Z,2.77
2018-09-22T22:41:44.989Z,2.20
2018-09-22T22:44:13.563Z,2.53
2018-09-22T22:46:42.058Z,2.60
2018-09-22T22:49:10.574Z,2.87
2018-09-22T22:51:39.018Z,2.60
2018-09-22T22:54:07.566Z,2.57
2018-09-22T22:56:37.111Z,2.93
2018-09-22T22:59:06.717Z,2.80
2018-09-22T23:01:35.186Z,2.70
2018-09-22T23:04:03.697Z,2.43
2018-09-22T23:06:32.300Z,2.63
2018-09-22T23:09:01.649Z,2.50
2018-09-22T23:11:30.173Z,2.60
2018-09-22T23:13:58.597Z,2.63
2018-09-22T23:16:27.137Z,2.17
2018-09-22T23:18:55.586Z,2.20
2018-09-22T23:21:24.082Z,2.23
2018-09-22T23:23:52.590Z,1.90
2018-09-22T23:26:22.097Z,1.40
2018-09-22T23:28:50.551Z,1.60
2018-09-22T23:31:19.073Z,1.37
2018-09-22T23:33:47.613Z,1.33
2018-09-22T23:36:16.086Z,1.70
2018-09-22T23:38:44.609Z,1.70
2018-09-22T23:41:13.094Z,1.70
2018-09-22T23:43:41.598Z,1.73
2018-09-22T23:46:10.107Z,1.20
2018-09-22T23:48:38.585Z,1.50
2018-09-22T23:51:07.130Z,1.70
2018-09-22T23:53:35.700Z,1.50
2018-09-22T23:56:04.167Z,1.97
2018-09-22T23:58:32.692Z,1.40
